logo
Search for airport 
image banner adimage banner adimage banner ad
image banner ad

YKII - King Island

Located in Currie, Australia

ICAO - YKII, IATA - KNS

Data provided by Airmate  

General information

Coordinates: S39°52'39" E143°52'42"
Elevation is 132 feet MSL.
 
View others Airports in Tasmania

Operational data

Special qualification required
Current time UTC:
Current local time:
Weather at : - ( 0 km )
METAR: PACM 220717Z AUTO 12011KT 10SM SCT008 OVC040 02/02 A2958 RMK AO2 FZRANO
View NOTAMs / SUP AIP / TFR affecting this airport [VIEW]
Communications frequencies: [VIEW]

Runways:

RWY identifierQFULength (ft)Width (ft)SurfaceLDA (ft)
10115°520098ASP
28295°520098ASP
17184°362598COM
35362598COM

Airport contact information

Address: Currie Australia

Satellite view of YKII